sensor_id;sensor_type;location;lat;lon;timestamp;temperature;humidity
70734;DHT22;58320;48.804;9.252;2022-12-07T00:01:31;3.90;91.90
70734;DHT22;58320;48.804;9.252;2022-12-07T00:04:01;3.90;92.20
70734;DHT22;58320;48.804;9.252;2022-12-07T00:06:40;3.90;92.50
70734;DHT22;58320;48.804;9.252;2022-12-07T00:09:10;3.90;92.40
70734;DHT22;58320;48.804;9.252;2022-12-07T00:11:38;3.90;92.40
70734;DHT22;58320;48.804;9.252;2022-12-07T00:14:07;4.00;92.40
70734;DHT22;58320;48.804;9.252;2022-12-07T00:16:35;4.00;92.20
70734;DHT22;58320;48.804;9.252;2022-12-07T00:19:03;4.00;92.30
70734;DHT22;58320;48.804;9.252;2022-12-07T00:21:31;4.00;92.10
70734;DHT22;58320;48.804;9.252;2022-12-07T00:23:59;4.00;92.00
70734;DHT22;58320;48.804;9.252;2022-12-07T00:26:30;4.00;91.90
70734;DHT22;58320;48.804;9.252;2022-12-07T00:29:00;3.90;92.10
70734;DHT22;58320;48.804;9.252;2022-12-07T00:31:31;3.90;92.30
70734;DHT22;58320;48.804;9.252;2022-12-07T00:34:00;3.90;92.30
70734;DHT22;58320;48.804;9.252;2022-12-07T00:36:26;3.90;92.30
70734;DHT22;58320;48.804;9.252;2022-12-07T00:38:53;3.90;92.30
70734;DHT22;58320;48.804;9.252;2022-12-07T00:41:22;3.90;92.20
70734;DHT22;58320;48.804;9.252;2022-12-07T00:43:49;3.90;92.30
70734;DHT22;58320;48.804;9.252;2022-12-07T00:46:16;3.90;92.40
70734;DHT22;58320;48.804;9.252;2022-12-07T00:48:42;3.90;92.50
70734;DHT22;58320;48.804;9.252;2022-12-07T00:51:10;3.90;92.40
70734;DHT22;58320;48.804;9.252;2022-12-07T00:53:37;3.90;92.10
70734;DHT22;58320;48.804;9.252;2022-12-07T00:56:26;3.80;92.10
70734;DHT22;58320;48.804;9.252;2022-12-07T00:58:58;3.80;92.10
70734;DHT22;58320;48.804;9.252;2022-12-07T01:01:28;3.80;92.00
70734;DHT22;58320;48.804;9.252;2022-12-07T01:03:55;3.80;92.10
70734;DHT22;58320;48.804;9.252;2022-12-07T01:06:25;3.80;92.00
70734;DHT22;58320;48.804;9.252;2022-12-07T01:08:52;3.80;91.80
70734;DHT22;58320;48.804;9.252;2022-12-07T01:11:21;3.80;91.80
70734;DHT22;58320;48.804;9.252;2022-12-07T01:13:53;3.80;91.50
70734;DHT22;58320;48.804;9.252;2022-12-07T01:16:21;3.70;91.70
70734;DHT22;58320;48.804;9.252;2022-12-07T01:18:50;3.70;91.90
70734;DHT22;58320;48.804;9.252;2022-12-07T01:21:29;3.70;92.10
70734;DHT22;58320;48.804;9.252;2022-12-07T01:24:02;3.70;91.60
70734;DHT22;58320;48.804;9.252;2022-12-07T01:26:29;3.70;91.30
70734;DHT22;58320;48.804;9.252;2022-12-07T01:28:55;3.70;91.40
70734;DHT22;58320;48.804;9.252;2022-12-07T01:31:23;3.70;91.50
70734;DHT22;58320;48.804;9.252;2022-12-07T01:33:53;3.70;91.60
70734;DHT22;58320;48.804;9.252;2022-12-07T01:36:23;3.70;91.60
70734;DHT22;58320;48.804;9.252;2022-12-07T01:38:54;3.70;91.30
70734;DHT22;58320;48.804;9.252;2022-12-07T01:41:24;3.70;91.20
70734;DHT22;58320;48.804;9.252;2022-12-07T01:46:39;3.70;91.30
70734;DHT22;58320;48.804;9.252;2022-12-07T01:49:10;3.70;90.50
70734;DHT22;58320;48.804;9.252;2022-12-07T01:51:41;3.70;90.60
70734;DHT22;58320;48.804;9.252;2022-12-07T01:54:08;3.70;90.40
70734;DHT22;58320;48.804;9.252;2022-12-07T01:56:36;3.70;90.30
70734;DHT22;58320;48.804;9.252;2022-12-07T01:59:03;3.60;90.30
70734;DHT22;58320;48.804;9.252;2022-12-07T02:01:29;3.60;89.90
70734;DHT22;58320;48.804;9.252;2022-12-07T02:03:55;3.60;89.70
70734;DHT22;58320;48.804;9.252;2022-12-07T02:06:24;3.60;89.70
70734;DHT22;58320;48.804;9.252;2022-12-07T02:08:50;3.70;89.80
70734;DHT22;58320;48.804;9.252;2022-12-07T02:11:16;3.70;89.60
70734;DHT22;58320;48.804;9.252;2022-12-07T02:13:44;3.70;89.40
70734;DHT22;58320;48.804;9.252;2022-12-07T02:30:23;3.70;89.70
70734;DHT22;58320;48.804;9.252;2022-12-07T02:33:03;3.60;89.60
70734;DHT22;58320;48.804;9.252;2022-12-07T02:35:40;3.60;89.50
70734;DHT22;58320;48.804;9.252;2022-12-07T02:38:37;3.60;89.50
70734;DHT22;58320;48.804;9.252;2022-12-07T02:43:43;3.60;89.70
70734;DHT22;58320;48.804;9.252;2022-12-07T02:46:16;3.50;89.70
70734;DHT22;58320;48.804;9.252;2022-12-07T02:48:45;3.50;89.90
70734;DHT22;58320;48.804;9.252;2022-12-07T02:51:12;3.50;90.10
70734;DHT22;58320;48.804;9.252;2022-12-07T02:53:42;3.50;90.20
70734;DHT22;58320;48.804;9.252;2022-12-07T02:59:25;3.50;90.40
70734;DHT22;58320;48.804;9.252;2022-12-07T03:02:03;3.50;90.40
70734;DHT22;58320;48.804;9.252;2022-12-07T03:16:28;3.50;90.50
70734;DHT22;58320;48.804;9.252;2022-12-07T03:19:07;3.40;90.60
70734;DHT22;58320;48.804;9.252;2022-12-07T03:21:43;3.40;90.60
70734;DHT22;58320;48.804;9.252;2022-12-07T03:24:17;3.40;90.80
70734;DHT22;58320;48.804;9.252;2022-12-07T03:26:49;3.40;90.80
70734;DHT22;58320;48.804;9.252;2022-12-07T03:29:40;3.40;90.80
70734;DHT22;58320;48.804;9.252;2022-12-07T03:32:22;3.40;90.80
70734;DHT22;58320;48.804;9.252;2022-12-07T03:35:04;3.40;90.80
70734;DHT22;58320;48.804;9.252;2022-12-07T03:38:04;3.40;90.80
70734;DHT22;58320;48.804;9.252;2022-12-07T03:41:22;3.30;90.90
70734;DHT22;58320;48.804;9.252;2022-12-07T03:43:42;3.40;90.70
70734;DHT22;58320;48.804;9.252;2022-12-07T03:55:32;3.40;91.10
70734;DHT22;58320;48.804;9.252;2022-12-07T03:58:09;3.40;91.00
70734;DHT22;58320;48.804;9.252;2022-12-07T04:00:37;3.40;91.00
70734;DHT22;58320;48.804;9.252;2022-12-07T04:03:03;3.30;91.10
70734;DHT22;58320;48.804;9.252;2022-12-07T04:05:29;3.30;91.20
70734;DHT22;58320;48.804;9.252;2022-12-07T04:07:55;3.20;91.40
70734;DHT22;58320;48.804;9.252;2022-12-07T04:10:21;3.20;91.30
70734;DHT22;58320;48.804;9.252;2022-12-07T04:12:47;3.10;91.10
70734;DHT22;58320;48.804;9.252;2022-12-07T04:15:12;3.10;91.40
70734;DHT22;58320;48.804;9.252;2022-12-07T04:17:38;3.00;91.60
70734;DHT22;58320;48.804;9.252;2022-12-07T04:20:05;2.90;91.80
70734;DHT22;58320;48.804;9.252;2022-12-07T04:22:31;2.80;92.10
70734;DHT22;58320;48.804;9.252;2022-12-07T04:24:57;2.70;92.50
70734;DHT22;58320;48.804;9.252;2022-12-07T04:27:23;2.70;92.60
70734;DHT22;58320;48.804;9.252;2022-12-07T04:29:52;2.60;92.90
70734;DHT22;58320;48.804;9.252;2022-12-07T04:32:18;2.50;92.90
70734;DHT22;58320;48.804;9.252;2022-12-07T04:34:43;2.40;92.90
70734;DHT22;58320;48.804;9.252;2022-12-07T04:37:09;2.40;92.80
70734;DHT22;58320;48.804;9.252;2022-12-07T04:39:36;2.30;92.80
70734;DHT22;58320;48.804;9.252;2022-12-07T04:42:02;2.30;93.10
70734;DHT22;58320;48.804;9.252;2022-12-07T04:44:29;2.30;93.40
70734;DHT22;58320;48.804;9.252;2022-12-07T04:46:56;2.30;93.30
70734;DHT22;58320;48.804;9.252;2022-12-07T04:49:23;2.30;92.70
70734;DHT22;58320;48.804;9.252;2022-12-07T04:51:49;2.30;92.50
70734;DHT22;58320;48.804;9.252;2022-12-07T04:54:17;2.30;91.60
70734;DHT22;58320;48.804;9.252;2022-12-07T04:56:43;2.40;90.10
70734;DHT22;58320;48.804;9.252;2022-12-07T04:59:13;2.40;89.10
70734;DHT22;58320;48.804;9.252;2022-12-07T05:01:40;2.50;88.30
70734;DHT22;58320;48.804;9.252;2022-12-07T05:04:06;2.50;87.40
70734;DHT22;58320;48.804;9.252;2022-12-07T05:06:32;2.50;87.30
70734;DHT22;58320;48.804;9.252;2022-12-07T05:08:58;2.60;87.20
70734;DHT22;58320;48.804;9.252;2022-12-07T05:11:24;2.60;87.10
70734;DHT22;58320;48.804;9.252;2022-12-07T05:14:19;2.60;87.50
70734;DHT22;58320;48.804;9.252;2022-12-07T05:16:47;2.70;87.80
70734;DHT22;58320;48.804;9.252;2022-12-07T05:19:15;2.60;87.60
70734;DHT22;58320;48.804;9.252;2022-12-07T05:21:41;2.60;88.20
70734;DHT22;58320;48.804;9.252;2022-12-07T05:24:10;2.50;88.00
70734;DHT22;58320;48.804;9.252;2022-12-07T05:26:38;2.50;88.00
70734;DHT22;58320;48.804;9.252;2022-12-07T05:29:04;2.40;88.30
70734;DHT22;58320;48.804;9.252;2022-12-07T05:31:30;2.40;88.80
70734;DHT22;58320;48.804;9.252;2022-12-07T05:33:56;2.30;89.20
70734;DHT22;58320;48.804;9.252;2022-12-07T05:36:23;2.30;89.80
70734;DHT22;58320;48.804;9.252;2022-12-07T05:38:48;2.20;90.30
70734;DHT22;58320;48.804;9.252;2022-12-07T05:41:17;2.20;90.70
70734;DHT22;58320;48.804;9.252;2022-12-07T05:44:02;2.10;91.30
70734;DHT22;58320;48.804;9.252;2022-12-07T05:46:28;2.10;91.90
70734;DHT22;58320;48.804;9.252;2022-12-07T05:48:54;2.00;92.30
70734;DHT22;58320;48.804;9.252;2022-12-07T05:51:20;2.00;92.70
70734;DHT22;58320;48.804;9.252;2022-12-07T05:53:46;2.00;93.10
70734;DHT22;58320;48.804;9.252;2022-12-07T05:56:12;2.00;93.20
70734;DHT22;58320;48.804;9.252;2022-12-07T05:58:38;2.00;93.30
70734;DHT22;58320;48.804;9.252;2022-12-07T06:01:22;2.00;93.30
70734;DHT22;58320;48.804;9.252;2022-12-07T06:03:48;2.00;93.60
70734;DHT22;58320;48.804;9.252;2022-12-07T06:06:14;2.00;93.90
70734;DHT22;58320;48.804;9.252;2022-12-07T06:08:39;2.10;93.80
70734;DHT22;58320;48.804;9.252;2022-12-07T06:11:05;2.10;93.70
70734;DHT22;58320;48.804;9.252;2022-12-07T06:13:49;2.20;93.60
70734;DHT22;58320;48.804;9.252;2022-12-07T06:16:15;2.20;93.50
70734;DHT22;58320;48.804;9.252;2022-12-07T06:18:41;2.30;93.70
70734;DHT22;58320;48.804;9.252;2022-12-07T06:21:06;2.30;94.00
70734;DHT22;58320;48.804;9.252;2022-12-07T06:23:32;2.40;94.00
70734;DHT22;58320;48.804;9.252;2022-12-07T06:25:58;2.40;93.80
70734;DHT22;58320;48.804;9.252;2022-12-07T06:28:24;2.50;94.00
70734;DHT22;58320;48.804;9.252;2022-12-07T06:31:00;2.50;93.90
70734;DHT22;58320;48.804;9.252;2022-12-07T06:33:28;2.50;93.80
70734;DHT22;58320;48.804;9.252;2022-12-07T06:35:54;2.50;93.60
70734;DHT22;58320;48.804;9.252;2022-12-07T06:38:21;2.50;92.70
70734;DHT22;58320;48.804;9.252;2022-12-07T06:40:46;2.40;92.80
70734;DHT22;58320;48.804;9.252;2022-12-07T06:43:13;2.50;93.40
70734;DHT22;58320;48.804;9.252;2022-12-07T06:45:41;2.40;93.00
70734;DHT22;58320;48.804;9.252;2022-12-07T06:48:06;2.40;93.20
70734;DHT22;58320;48.804;9.252;2022-12-07T06:50:32;2.40;93.40
70734;DHT22;58320;48.804;9.252;2022-12-07T06:52:58;2.40;93.60
70734;DHT22;58320;48.804;9.252;2022-12-07T06:55:24;2.40;93.70
70734;DHT22;58320;48.804;9.252;2022-12-07T06:57:50;2.40;93.40
70734;DHT22;58320;48.804;9.252;2022-12-07T07:00:16;2.50;93.10
70734;DHT22;58320;48.804;9.252;2022-12-07T07:02:42;2.40;92.80
70734;DHT22;58320;48.804;9.252;2022-12-07T07:05:08;2.40;93.00
70734;DHT22;58320;48.804;9.252;2022-12-07T07:07:34;2.40;93.10
70734;DHT22;58320;48.804;9.252;2022-12-07T07:09:59;2.50;93.20
70734;DHT22;58320;48.804;9.252;2022-12-07T07:12:25;2.50;92.30
70734;DHT22;58320;48.804;9.252;2022-12-07T07:14:51;2.50;92.80
70734;DHT22;58320;48.804;9.252;2022-12-07T07:17:17;2.50;92.70
70734;DHT22;58320;48.804;9.252;2022-12-07T07:19:42;2.60;91.90
70734;DHT22;58320;48.804;9.252;2022-12-07T07:22:08;2.60;92.20
70734;DHT22;58320;48.804;9.252;2022-12-07T07:24:34;2.70;91.50
70734;DHT22;58320;48.804;9.252;2022-12-07T07:27:00;2.70;89.20
70734;DHT22;58320;48.804;9.252;2022-12-07T07:29:26;2.70;87.40
70734;DHT22;58320;48.804;9.252;2022-12-07T07:31:52;2.70;87.00
70734;DHT22;58320;48.804;9.252;2022-12-07T07:34:17;2.70;86.30
70734;DHT22;58320;48.804;9.252;2022-12-07T07:36:44;2.70;86.40
70734;DHT22;58320;48.804;9.252;2022-12-07T07:39:10;2.70;86.10
70734;DHT22;58320;48.804;9.252;2022-12-07T07:41:38;2.80;85.10
70734;DHT22;58320;48.804;9.252;2022-12-07T07:44:04;2.80;85.40
70734;DHT22;58320;48.804;9.252;2022-12-07T07:46:30;2.90;84.40
70734;DHT22;58320;48.804;9.252;2022-12-07T07:48:56;2.90;84.70
70734;DHT22;58320;48.804;9.252;2022-12-07T07:51:22;2.90;83.90
70734;DHT22;58320;48.804;9.252;2022-12-07T07:53:48;2.90;83.90
70734;DHT22;58320;48.804;9.252;2022-12-07T07:56:13;3.00;83.70
70734;DHT22;58320;48.804;9.252;2022-12-07T07:58:39;3.00;83.10
70734;DHT22;58320;48.804;9.252;2022-12-07T08:01:06;3.10;82.90
70734;DHT22;58320;48.804;9.252;2022-12-07T08:03:32;3.20;82.30
70734;DHT22;58320;48.804;9.252;2022-12-07T08:05:58;3.20;81.10
70734;DHT22;58320;48.804;9.252;2022-12-07T08:08:24;3.30;80.30
70734;DHT22;58320;48.804;9.252;2022-12-07T08:13:17;3.30;79.80
70734;DHT22;58320;48.804;9.252;2022-12-07T08:15:44;3.40;79.70
70734;DHT22;58320;48.804;9.252;2022-12-07T08:18:12;3.50;79.20
70734;DHT22;58320;48.804;9.252;2022-12-07T08:20:39;3.60;78.70
70734;DHT22;58320;48.804;9.252;2022-12-07T08:23:07;3.70;77.90
70734;DHT22;58320;48.804;9.252;2022-12-07T08:25:34;3.70;77.60
70734;DHT22;58320;48.804;9.252;2022-12-07T08:28:00;3.80;77.50
70734;DHT22;58320;48.804;9.252;2022-12-07T08:30:27;3.90;76.20
70734;DHT22;58320;48.804;9.252;2022-12-07T08:32:53;3.90;75.80
70734;DHT22;58320;48.804;9.252;2022-12-07T08:35:19;3.90;76.10
70734;DHT22;58320;48.804;9.252;2022-12-07T08:37:45;4.00;75.70
70734;DHT22;58320;48.804;9.252;2022-12-07T08:40:12;4.10;73.70
70734;DHT22;58320;48.804;9.252;2022-12-07T08:42:50;4.20;74.00
70734;DHT22;58320;48.804;9.252;2022-12-07T08:45:17;4.30;73.60
70734;DHT22;58320;48.804;9.252;2022-12-07T08:47:56;4.40;73.60
70734;DHT22;58320;48.804;9.252;2022-12-07T08:50:27;4.40;72.80
70734;DHT22;58320;48.804;9.252;2022-12-07T08:52:56;4.60;73.20
70734;DHT22;58320;48.804;9.252;2022-12-07T08:55:23;4.60;72.50
70734;DHT22;58320;48.804;9.252;2022-12-07T08:57:49;4.70;72.70
70734;DHT22;58320;48.804;9.252;2022-12-07T09:00:16;4.70;72.40
70734;DHT22;58320;48.804;9.252;2022-12-07T09:02:45;4.70;72.90
70734;DHT22;58320;48.804;9.252;2022-12-07T09:05:11;4.80;73.10
70734;DHT22;58320;48.804;9.252;2022-12-07T09:07:40;4.80;73.10
70734;DHT22;58320;48.804;9.252;2022-12-07T09:10:09;4.80;73.50
70734;DHT22;58320;48.804;9.252;2022-12-07T09:12:35;4.90;73.40
70734;DHT22;58320;48.804;9.252;2022-12-07T09:15:01;4.90;73.00
70734;DHT22;58320;48.804;9.252;2022-12-07T09:17:27;4.80;72.80
70734;DHT22;58320;48.804;9.252;2022-12-07T09:19:52;4.90;73.00
70734;DHT22;58320;48.804;9.252;2022-12-07T09:22:18;5.00;71.70
70734;DHT22;58320;48.804;9.252;2022-12-07T09:24:44;5.10;71.70
70734;DHT22;58320;48.804;9.252;2022-12-07T09:27:11;5.10;71.90
70734;DHT22;58320;48.804;9.252;2022-12-07T09:29:37;5.20;72.30
70734;DHT22;58320;48.804;9.252;2022-12-07T09:32:03;5.20;70.90
70734;DHT22;58320;48.804;9.252;2022-12-07T09:34:31;5.30;71.30
70734;DHT22;58320;48.804;9.252;2022-12-07T09:36:57;5.50;70.90
70734;DHT22;58320;48.804;9.252;2022-12-07T09:39:24;5.60;69.90
70734;DHT22;58320;48.804;9.252;2022-12-07T09:41:50;5.60;69.70
70734;DHT22;58320;48.804;9.252;2022-12-07T09:44:24;5.70;69.50
70734;DHT22;58320;48.804;9.252;2022-12-07T09:46:51;5.80;68.60
70734;DHT22;58320;48.804;9.252;2022-12-07T09:49:20;6.00;68.80
70734;DHT22;58320;48.804;9.252;2022-12-07T09:54:41;6.10;67.20
70734;DHT22;58320;48.804;9.252;2022-12-07T09:57:11;6.10;66.80
70734;DHT22;58320;48.804;9.252;2022-12-07T09:59:41;6.20;67.40
70734;DHT22;58320;48.804;9.252;2022-12-07T10:04:54;6.30;66.70
70734;DHT22;58320;48.804;9.252;2022-12-07T10:07:20;6.30;66.40
70734;DHT22;58320;48.804;9.252;2022-12-07T10:09:46;6.30;66.60
70734;DHT22;58320;48.804;9.252;2022-12-07T10:12:12;6.30;66.20
70734;DHT22;58320;48.804;9.252;2022-12-07T10:14:52;6.40;66.80
70734;DHT22;58320;48.804;9.252;2022-12-07T10:20:20;6.20;65.10
70734;DHT22;58320;48.804;9.252;2022-12-07T10:23:03;6.00;65.50
70734;DHT22;58320;48.804;9.252;2022-12-07T10:25:36;5.90;65.60
70734;DHT22;58320;48.804;9.252;2022-12-07T10:28:11;5.80;66.50
70734;DHT22;58320;48.804;9.252;2022-12-07T10:33:35;5.80;67.60
70734;DHT22;58320;48.804;9.252;2022-12-07T10:39:04;5.60;67.70
70734;DHT22;58320;48.804;9.252;2022-12-07T10:41:59;5.40;67.80
70734;DHT22;58320;48.804;9.252;2022-12-07T10:44:29;5.30;68.30
70734;DHT22;58320;48.804;9.252;2022-12-07T10:52:58;5.40;68.60
70734;DHT22;58320;48.804;9.252;2022-12-07T11:01:45;5.30;69.40
70734;DHT22;58320;48.804;9.252;2022-12-07T11:04:28;5.30;69.70
70734;DHT22;58320;48.804;9.252;2022-12-07T11:21:34;5.30;71.00
70734;DHT22;58320;48.804;9.252;2022-12-07T11:24:18;5.30;71.30
70734;DHT22;58320;48.804;9.252;2022-12-07T11:32:22;5.30;72.50
70734;DHT22;58320;48.804;9.252;2022-12-07T11:37:51;5.30;73.40
70734;DHT22;58320;48.804;9.252;2022-12-07T11:40:30;5.30;73.70
70734;DHT22;58320;48.804;9.252;2022-12-07T11:43:28;5.40;73.90
70734;DHT22;58320;48.804;9.252;2022-12-07T11:46:11;5.40;74.00
70734;DHT22;58320;48.804;9.252;2022-12-07T11:48:41;5.40;74.00
70734;DHT22;58320;48.804;9.252;2022-12-07T11:51:13;5.40;74.40
70734;DHT22;58320;48.804;9.252;2022-12-07T11:56:54;5.30;75.70
70734;DHT22;58320;48.804;9.252;2022-12-07T11:59:36;5.20;76.90
70734;DHT22;58320;48.804;9.252;2022-12-07T12:02:22;5.20;77.30
70734;DHT22;58320;48.804;9.252;2022-12-07T12:05:15;5.20;77.40
70734;DHT22;58320;48.804;9.252;2022-12-07T12:07:43;5.10;77.50
70734;DHT22;58320;48.804;9.252;2022-12-07T12:19:38;5.10;77.00
70734;DHT22;58320;48.804;9.252;2022-12-07T12:22:17;5.10;77.00
70734;DHT22;58320;48.804;9.252;2022-12-07T12:24:46;5.10;77.20
70734;DHT22;58320;48.804;9.252;2022-12-07T12:27:40;5.10;77.30
70734;DHT22;58320;48.804;9.252;2022-12-07T12:30:38;5.10;77.10
70734;DHT22;58320;48.804;9.252;2022-12-07T12:33:27;5.20;76.70
70734;DHT22;58320;48.804;9.252;2022-12-07T12:49:41;5.10;76.70
70734;DHT22;58320;48.804;9.252;2022-12-07T12:54:39;5.20;76.80
70734;DHT22;58320;48.804;9.252;2022-12-07T12:57:33;5.20;75.90
70734;DHT22;58320;48.804;9.252;2022-12-07T13:00:12;5.20;75.60
70734;DHT22;58320;48.804;9.252;2022-12-07T13:02:54;5.20;74.80
70734;DHT22;58320;48.804;9.252;2022-12-07T13:05:23;5.10;74.50
70734;DHT22;58320;48.804;9.252;2022-12-07T13:08:01;5.00;75.00
70734;DHT22;58320;48.804;9.252;2022-12-07T13:10:45;5.00;75.20
70734;DHT22;58320;48.804;9.252;2022-12-07T13:15:48;5.00;75.70
70734;DHT22;58320;48.804;9.252;2022-12-07T13:21:02;5.20;75.70
70734;DHT22;58320;48.804;9.252;2022-12-07T13:26:23;5.20;75.50
70734;DHT22;58320;48.804;9.252;2022-12-07T13:29:06;5.30;75.80
70734;DHT22;58320;48.804;9.252;2022-12-07T13:31:55;5.30;75.40
70734;DHT22;58320;48.804;9.252;2022-12-07T13:34:32;5.30;75.80
70734;DHT22;58320;48.804;9.252;2022-12-07T13:37:21;5.20;76.00
70734;DHT22;58320;48.804;9.252;2022-12-07T13:42:33;5.10;75.10
70734;DHT22;58320;48.804;9.252;2022-12-07T13:45:17;5.00;75.70
70734;DHT22;58320;48.804;9.252;2022-12-07T13:47:52;5.00;76.00
70734;DHT22;58320;48.804;9.252;2022-12-07T13:52:50;5.00;76.30
70734;DHT22;58320;48.804;9.252;2022-12-07T13:55:20;4.90;76.30
70734;DHT22;58320;48.804;9.252;2022-12-07T13:57:52;4.90;76.30
70734;DHT22;58320;48.804;9.252;2022-12-07T14:00:25;4.90;76.70
70734;DHT22;58320;48.804;9.252;2022-12-07T14:02:56;4.80;76.80
70734;DHT22;58320;48.804;9.252;2022-12-07T14:05:26;4.80;77.00
70734;DHT22;58320;48.804;9.252;2022-12-07T14:08:00;4.80;77.10
70734;DHT22;58320;48.804;9.252;2022-12-07T14:12:59;4.70;77.50
70734;DHT22;58320;48.804;9.252;2022-12-07T14:15:32;4.80;77.70
70734;DHT22;58320;48.804;9.252;2022-12-07T14:18:00;4.90;77.60
70734;DHT22;58320;48.804;9.252;2022-12-07T14:20:39;4.90;77.20
70734;DHT22;58320;48.804;9.252;2022-12-07T14:23:24;5.00;76.50
70734;DHT22;58320;48.804;9.252;2022-12-07T14:25:52;5.10;76.60
70734;DHT22;58320;48.804;9.252;2022-12-07T14:28:30;5.30;76.00
70734;DHT22;58320;48.804;9.252;2022-12-07T14:30:58;5.40;75.70
70734;DHT22;58320;48.804;9.252;2022-12-07T14:33:25;5.50;75.40
70734;DHT22;58320;48.804;9.252;2022-12-07T14:35:51;5.50;75.10
70734;DHT22;58320;48.804;9.252;2022-12-07T14:38:23;5.50;75.00
70734;DHT22;58320;48.804;9.252;2022-12-07T14:40:53;5.50;74.70
70734;DHT22;58320;48.804;9.252;2022-12-07T14:43:20;5.40;75.00
70734;DHT22;58320;48.804;9.252;2022-12-07T14:45:46;5.30;75.50
70734;DHT22;58320;48.804;9.252;2022-12-07T14:48:13;5.20;75.90
70734;DHT22;58320;48.804;9.252;2022-12-07T14:50:52;5.20;75.90
70734;DHT22;58320;48.804;9.252;2022-12-07T14:53:22;5.10;76.20
70734;DHT22;58320;48.804;9.252;2022-12-07T14:55:53;5.00;76.10
70734;DHT22;58320;48.804;9.252;2022-12-07T14:58:19;4.90;76.50
70734;DHT22;58320;48.804;9.252;2022-12-07T15:00:46;4.80;76.90
70734;DHT22;58320;48.804;9.252;2022-12-07T15:03:13;4.80;77.30
70734;DHT22;58320;48.804;9.252;2022-12-07T15:05:40;4.70;77.10
70734;DHT22;58320;48.804;9.252;2022-12-07T15:08:08;4.70;77.20
70734;DHT22;58320;48.804;9.252;2022-12-07T15:10:34;4.70;76.50
70734;DHT22;58320;48.804;9.252;2022-12-07T15:13:04;4.60;76.70
70734;DHT22;58320;48.804;9.252;2022-12-07T15:15:50;4.60;76.50
70734;DHT22;58320;48.804;9.252;2022-12-07T15:18:18;4.60;76.90
70734;DHT22;58320;48.804;9.252;2022-12-07T15:20:45;4.60;76.90
70734;DHT22;58320;48.804;9.252;2022-12-07T15:23:11;4.50;77.00
70734;DHT22;58320;48.804;9.252;2022-12-07T15:25:42;4.50;77.40
70734;DHT22;58320;48.804;9.252;2022-12-07T15:28:12;4.50;77.70
70734;DHT22;58320;48.804;9.252;2022-12-07T15:30:39;4.40;78.10
70734;DHT22;58320;48.804;9.252;2022-12-07T15:33:08;4.40;78.20
70734;DHT22;58320;48.804;9.252;2022-12-07T15:35:37;4.40;78.80
70734;DHT22;58320;48.804;9.252;2022-12-07T15:38:06;4.40;78.80
70734;DHT22;58320;48.804;9.252;2022-12-07T15:40:33;4.40;79.00
70734;DHT22;58320;48.804;9.252;2022-12-07T15:43:00;4.40;79.30
70734;DHT22;58320;48.804;9.252;2022-12-07T15:45:26;4.40;79.40
70734;DHT22;58320;48.804;9.252;2022-12-07T15:47:52;4.40;79.40
70734;DHT22;58320;48.804;9.252;2022-12-07T15:50:20;4.30;79.30
70734;DHT22;58320;48.804;9.252;2022-12-07T15:52:47;4.30;79.50
70734;DHT22;58320;48.804;9.252;2022-12-07T15:55:13;4.30;79.60
70734;DHT22;58320;48.804;9.252;2022-12-07T15:57:39;4.20;79.70
70734;DHT22;58320;48.804;9.252;2022-12-07T16:00:07;4.20;79.90
70734;DHT22;58320;48.804;9.252;2022-12-07T16:02:36;4.20;80.40
70734;DHT22;58320;48.804;9.252;2022-12-07T16:05:03;4.10;80.60
70734;DHT22;58320;48.804;9.252;2022-12-07T16:07:29;4.10;80.90
70734;DHT22;58320;48.804;9.252;2022-12-07T16:09:55;4.10;81.10
70734;DHT22;58320;48.804;9.252;2022-12-07T16:12:21;4.10;81.40
70734;DHT22;58320;48.804;9.252;2022-12-07T16:14:46;4.00;81.60
70734;DHT22;58320;48.804;9.252;2022-12-07T16:17:12;4.00;81.50
70734;DHT22;58320;48.804;9.252;2022-12-07T16:19:38;4.00;80.70
70734;DHT22;58320;48.804;9.252;2022-12-07T16:22:04;3.90;80.30
70734;DHT22;58320;48.804;9.252;2022-12-07T16:24:31;3.90;80.50
70734;DHT22;58320;48.804;9.252;2022-12-07T16:26:57;3.90;80.50
70734;DHT22;58320;48.804;9.252;2022-12-07T16:29:23;3.90;80.40
70734;DHT22;58320;48.804;9.252;2022-12-07T16:31:50;3.80;80.80
70734;DHT22;58320;48.804;9.252;2022-12-07T16:34:17;3.80;80.90
70734;DHT22;58320;48.804;9.252;2022-12-07T16:36:43;3.80;81.10
70734;DHT22;58320;48.804;9.252;2022-12-07T16:39:09;3.70;80.90
70734;DHT22;58320;48.804;9.252;2022-12-07T16:41:35;3.70;80.90
70734;DHT22;58320;48.804;9.252;2022-12-07T16:44:03;3.70;81.20
70734;DHT22;58320;48.804;9.252;2022-12-07T16:46:35;3.60;81.30
70734;DHT22;58320;48.804;9.252;2022-12-07T16:49:02;3.60;81.40
70734;DHT22;58320;48.804;9.252;2022-12-07T16:51:28;3.50;81.60
70734;DHT22;58320;48.804;9.252;2022-12-07T16:53:54;3.40;82.20
70734;DHT22;58320;48.804;9.252;2022-12-07T16:56:20;3.30;82.40
70734;DHT22;58320;48.804;9.252;2022-12-07T16:58:47;3.20;82.50
70734;DHT22;58320;48.804;9.252;2022-12-07T17:01:17;3.10;82.70
70734;DHT22;58320;48.804;9.252;2022-12-07T17:03:45;3.10;83.00
70734;DHT22;58320;48.804;9.252;2022-12-07T17:08:42;2.90;83.80
70734;DHT22;58320;48.804;9.252;2022-12-07T17:11:28;2.90;84.00
70734;DHT22;58320;48.804;9.252;2022-12-07T17:13:56;2.90;83.90
70734;DHT22;58320;48.804;9.252;2022-12-07T17:16:41;2.90;83.80
70734;DHT22;58320;48.804;9.252;2022-12-07T17:19:09;3.00;83.60
70734;DHT22;58320;48.804;9.252;2022-12-07T17:21:36;3.00;83.40
70734;DHT22;58320;48.804;9.252;2022-12-07T17:24:05;3.10;82.90
70734;DHT22;58320;48.804;9.252;2022-12-07T17:26:33;3.10;82.80
70734;DHT22;58320;48.804;9.252;2022-12-07T17:28:59;3.10;82.90
70734;DHT22;58320;48.804;9.252;2022-12-07T17:31:25;3.20;83.00
70734;DHT22;58320;48.804;9.252;2022-12-07T17:33:52;3.20;83.00
70734;DHT22;58320;48.804;9.252;2022-12-07T17:36:20;3.20;83.10
70734;DHT22;58320;48.804;9.252;2022-12-07T17:38:49;3.20;83.40
70734;DHT22;58320;48.804;9.252;2022-12-07T17:41:18;3.30;83.80
70734;DHT22;58320;48.804;9.252;2022-12-07T17:44:10;3.30;83.70
70734;DHT22;58320;48.804;9.252;2022-12-07T17:46:40;3.40;83.50
70734;DHT22;58320;48.804;9.252;2022-12-07T17:49:07;3.40;83.50
70734;DHT22;58320;48.804;9.252;2022-12-07T17:51:34;3.40;83.10
70734;DHT22;58320;48.804;9.252;2022-12-07T17:54:19;3.40;83.30
70734;DHT22;58320;48.804;9.252;2022-12-07T17:56:46;3.40;83.60
70734;DHT22;58320;48.804;9.252;2022-12-07T17:59:12;3.40;83.40
70734;DHT22;58320;48.804;9.252;2022-12-07T18:01:39;3.40;83.30
70734;DHT22;58320;48.804;9.252;2022-12-07T18:04:05;3.40;82.80
70734;DHT22;58320;48.804;9.252;2022-12-07T18:06:31;3.40;82.70
70734;DHT22;58320;48.804;9.252;2022-12-07T18:08:59;3.40;82.80
70734;DHT22;58320;48.804;9.252;2022-12-07T18:11:25;3.40;83.00
70734;DHT22;58320;48.804;9.252;2022-12-07T18:13:51;3.50;82.80
70734;DHT22;58320;48.804;9.252;2022-12-07T18:16:20;3.50;82.60
70734;DHT22;58320;48.804;9.252;2022-12-07T18:18:48;3.50;82.90
70734;DHT22;58320;48.804;9.252;2022-12-07T18:21:20;3.50;83.00
70734;DHT22;58320;48.804;9.252;2022-12-07T18:23:48;3.50;82.90
70734;DHT22;58320;48.804;9.252;2022-12-07T18:26:18;3.50;82.80